KLCK

Rickenbacker International Airport

Columbus, Ohio, USA
METAR KLCK 140415Z AUTO 30008KT 10SM CLR M01/M08 A3043 RMK AO2 T10151077
Observed Flight Rules
Nov-14 @ 04:15 UTC (34 minutes ago) Visual Flight Rules
Wind Visibility Clouds
300° at 8 knots 10 miles
  • Clear skies
Temperatures Readings
Current -2°C / 28°F
Dewpoint -8°C / 18°F
Humidity 64%
Altimeter 30.43" Hg
Pressure 1030 hPa
Elevation 227
METAR KLCK 140415Z AUTO 30008KT 10SM CLR M01/M08 A3043 RMK AO2 T10151077
Observed Flight Rules
Nov-14 @ 04:15 UTC
(34 minutes ago)
VFR
Wind Visibility
300° at 8 knots 10 miles
Clouds
  • Clear skies
Temperature Dewpoint
-2°C / 28°F -8°C / 18°F
Humidity Altimeter Pressure
64% 30.43" Hg 1030 hPa